createdAt,value
2019-05-26T00:00:30.040Z,12.16
2019-05-26T00:01:30.028Z,12.13
2019-05-26T00:02:30.023Z,12.11
2019-05-26T00:03:30.009Z,12.25
2019-05-26T00:04:29.992Z,12.23
2019-05-26T00:05:29.984Z,12.23
2019-05-26T00:06:29.970Z,12.23
2019-05-26T00:07:31.011Z,12.12
2019-05-26T00:08:29.949Z,12.19
2019-05-26T00:09:29.934Z,12.15
2019-05-26T00:10:29.933Z,12.08
2019-05-26T00:11:29.912Z,12.01
2019-05-26T00:12:29.901Z,11.96
2019-05-26T00:13:29.895Z,11.98
2019-05-26T00:14:29.924Z,11.85
2019-05-26T00:15:29.873Z,11.78
2019-05-26T00:16:29.864Z,11.78
2019-05-26T00:17:29.847Z,11.75
2019-05-26T00:18:33.227Z,11.70
2019-05-26T00:19:29.825Z,11.77
2019-05-26T00:20:29.829Z,11.77
2019-05-26T00:21:29.809Z,11.82
2019-05-26T00:22:29.809Z,11.67
2019-05-26T00:23:29.786Z,11.75
2019-05-26T00:24:29.779Z,11.79
2019-05-26T00:25:29.799Z,11.79
2019-05-26T00:26:29.766Z,11.74
2019-05-26T00:27:29.750Z,11.82
2019-05-26T00:28:29.741Z,11.79
2019-05-26T00:29:29.724Z,11.70
2019-05-26T00:30:29.715Z,11.85
2019-05-26T00:31:29.709Z,11.93
2019-05-26T00:32:29.693Z,11.74
2019-05-26T00:33:29.681Z,11.78
2019-05-26T00:34:29.672Z,11.84
2019-05-26T00:35:29.662Z,11.85
2019-05-26T00:36:29.655Z,11.84
2019-05-26T00:37:45.672Z,11.81
2019-05-26T00:38:30.628Z,11.82
2019-05-26T00:39:29.617Z,11.94
2019-05-26T00:40:29.620Z,11.81
2019-05-26T00:41:29.600Z,11.85
2019-05-26T00:42:29.590Z,11.84
2019-05-26T00:43:29.576Z,11.85
2019-05-26T00:44:29.568Z,11.85
2019-05-26T00:45:29.555Z,11.85
2019-05-26T00:46:29.563Z,11.82
2019-05-26T00:47:29.541Z,11.88
2019-05-26T00:48:29.519Z,11.98
2019-05-26T00:49:29.515Z,11.94
2019-05-26T00:50:29.499Z,11.94
2019-05-26T00:51:29.511Z,11.96
2019-05-26T00:52:29.488Z,11.96
2019-05-26T00:53:29.528Z,11.97
2019-05-26T00:54:29.455Z,11.93
2019-05-26T00:55:29.451Z,11.94
2019-05-26T00:56:29.440Z,11.96
2019-05-26T00:57:29.427Z,11.90
2019-05-26T00:58:29.426Z,11.90
2019-05-26T00:59:29.402Z,11.88
2019-05-26T01:00:29.395Z,11.85
2019-05-26T01:01:29.391Z,11.87
2019-05-26T01:02:29.379Z,11.84
2019-05-26T01:03:29.373Z,11.87
2019-05-26T01:04:29.362Z,11.70
2019-05-26T01:05:29.340Z,11.79
2019-05-26T01:06:29.329Z,11.75
2019-05-26T01:07:29.316Z,11.74
2019-05-26T01:08:29.305Z,11.74
2019-05-26T01:09:29.307Z,11.70
2019-05-26T01:10:29.286Z,11.85
2019-05-26T01:11:29.279Z,11.84
2019-05-26T01:12:29.284Z,11.81
2019-05-26T01:13:29.252Z,11.78
2019-05-26T01:14:29.281Z,11.70
2019-05-26T01:15:29.231Z,11.70
2019-05-26T01:16:29.221Z,11.72
2019-05-26T01:17:29.216Z,11.69
2019-05-26T01:18:29.204Z,11.69
2019-05-26T01:19:29.199Z,11.67
2019-05-26T01:20:29.184Z,11.70
2019-05-26T01:21:29.172Z,11.70
2019-05-26T01:22:29.164Z,11.75
2019-05-26T01:23:29.154Z,11.70
2019-05-26T01:24:29.152Z,11.70
2019-05-26T01:25:29.135Z,11.72
2019-05-26T01:26:29.122Z,11.70
2019-05-26T01:27:29.110Z,11.53
2019-05-26T01:28:29.095Z,11.53
2019-05-26T01:29:29.089Z,11.53
2019-05-26T01:30:29.087Z,11.59
2019-05-26T01:31:29.067Z,11.48
2019-05-26T01:32:29.057Z,11.49
2019-05-26T01:33:29.040Z,11.45
2019-05-26T01:34:29.036Z,11.46
2019-05-26T01:35:29.028Z,11.44
2019-05-26T01:36:29.023Z,11.45
2019-05-26T01:37:29.007Z,11.42
2019-05-26T01:38:29.001Z,11.38
2019-05-26T01:39:28.981Z,11.42
2019-05-26T01:40:28.973Z,11.45
2019-05-26T01:41:28.971Z,11.41
2019-05-26T01:42:28.948Z,11.42
2019-05-26T01:43:29.007Z,11.42
2019-05-26T01:44:28.930Z,11.44
2019-05-26T01:45:28.919Z,11.42
2019-05-26T01:46:28.917Z,11.26
2019-05-26T01:47:28.893Z,11.35
2019-05-26T01:48:28.888Z,11.26
2019-05-26T01:49:28.871Z,11.31
2019-05-26T01:50:28.865Z,11.35
2019-05-26T01:51:28.862Z,11.27
2019-05-26T01:52:28.844Z,11.35
2019-05-26T01:53:28.828Z,11.30
2019-05-26T01:54:28.825Z,11.23
2019-05-26T01:55:28.813Z,11.26
2019-05-26T01:56:28.810Z,11.17
2019-05-26T01:57:28.814Z,11.19
2019-05-26T01:58:28.784Z,11.23
2019-05-26T01:59:28.767Z,11.27
2019-05-26T02:00:28.760Z,11.20
2019-05-26T02:01:28.772Z,11.28
2019-05-26T02:02:28.769Z,11.26
2019-05-26T02:03:28.722Z,11.17
2019-05-26T02:04:28.713Z,11.09
2019-05-26T02:05:28.701Z,11.19
2019-05-26T02:06:28.694Z,11.06
2019-05-26T02:07:28.690Z,11.01
2019-05-26T02:08:38.710Z,10.88
2019-05-26T02:09:29.662Z,10.90
2019-05-26T02:10:28.651Z,10.83
2019-05-26T02:11:28.644Z,10.84
2019-05-26T02:12:28.633Z,10.88
2019-05-26T02:13:28.619Z,10.88
2019-05-26T02:14:28.613Z,10.78
2019-05-26T02:15:28.593Z,10.88
2019-05-26T02:16:28.596Z,10.91
2019-05-26T02:17:28.596Z,10.95
2019-05-26T02:18:28.565Z,10.75
2019-05-26T02:19:28.550Z,10.86
2019-05-26T02:20:28.539Z,10.75
2019-05-26T02:21:28.543Z,10.70
2019-05-26T02:22:28.518Z,10.63
2019-05-26T02:23:28.520Z,10.63
2019-05-26T02:24:28.548Z,10.57
2019-05-26T02:25:28.490Z,10.57
2019-05-26T02:26:28.475Z,10.60
2019-05-26T02:27:28.474Z,10.65
2019-05-26T02:28:28.459Z,10.62
2019-05-26T02:29:28.451Z,10.66
2019-05-26T02:30:28.446Z,10.69
2019-05-26T02:31:28.428Z,10.72
2019-05-26T02:32:28.417Z,10.86
2019-05-26T02:33:28.410Z,10.83
2019-05-26T02:34:28.395Z,10.83
2019-05-26T02:35:28.379Z,10.72
2019-05-26T02:36:28.378Z,10.84
2019-05-26T02:37:28.362Z,10.83
2019-05-26T02:38:28.369Z,10.78
2019-05-26T02:39:28.340Z,10.70
2019-05-26T02:40:28.325Z,10.80
2019-05-26T02:41:28.328Z,10.75
2019-05-26T02:42:28.303Z,10.75
2019-05-26T02:43:28.293Z,10.83
2019-05-26T02:44:28.297Z,10.80
2019-05-26T02:45:28.277Z,10.78
2019-05-26T02:46:28.275Z,10.83
2019-05-26T02:47:28.255Z,10.75
2019-05-26T02:48:28.245Z,10.60
2019-05-26T02:49:28.242Z,10.62
2019-05-26T02:50:28.226Z,10.63
2019-05-26T02:51:28.214Z,10.54
2019-05-26T02:52:28.209Z,10.63
2019-05-26T02:53:28.195Z,10.57
2019-05-26T02:54:28.179Z,10.62
2019-05-26T02:55:28.165Z,10.60
2019-05-26T02:56:28.165Z,10.65
2019-05-26T02:57:28.190Z,10.62
2019-05-26T02:58:28.140Z,10.63
2019-05-26T02:59:28.120Z,10.57
2019-05-26T03:00:28.110Z,10.58
2019-05-26T03:01:28.101Z,10.69
2019-05-26T03:02:28.093Z,10.70
2019-05-26T03:03:28.089Z,10.70
2019-05-26T03:04:28.068Z,10.73
2019-05-26T03:05:28.062Z,10.75
2019-05-26T03:06:28.051Z,10.73
2019-05-26T03:07:28.086Z,10.73
2019-05-26T03:08:28.028Z,10.66
2019-05-26T03:09:28.020Z,10.70
2019-05-26T03:10:28.009Z,10.70
2019-05-26T03:11:27.999Z,10.65
2019-05-26T03:12:27.986Z,10.70
2019-05-26T03:13:27.992Z,10.70
2019-05-26T03:14:27.961Z,10.65
2019-05-26T03:15:27.948Z,10.70
2019-05-26T03:16:27.958Z,10.69
2019-05-26T03:17:27.940Z,10.62
2019-05-26T03:18:27.920Z,10.51
2019-05-26T03:19:27.921Z,10.42
2019-05-26T03:20:27.899Z,10.46
2019-05-26T03:21:27.889Z,10.49
2019-05-26T03:22:27.916Z,10.46
2019-05-26T03:23:27.870Z,10.39
2019-05-26T03:24:27.855Z,10.42
2019-05-26T03:25:27.841Z,10.36
2019-05-26T03:26:27.838Z,10.46
2019-05-26T03:27:27.820Z,10.29
2019-05-26T03:28:27.818Z,10.35
2019-05-26T03:29:27.806Z,10.39
2019-05-26T03:30:27.792Z,10.28
2019-05-26T03:31:27.786Z,10.28
2019-05-26T03:32:27.781Z,10.35
2019-05-26T03:33:27.762Z,10.31
2019-05-26T03:34:27.826Z,10.25
2019-05-26T03:35:27.738Z,10.31
2019-05-26T03:36:27.728Z,10.26
2019-05-26T03:37:27.713Z,10.31
2019-05-26T03:38:27.701Z,10.25
2019-05-26T03:39:43.422Z,10.36
2019-05-26T03:40:28.691Z,10.36
2019-05-26T03:41:27.677Z,10.39
2019-05-26T03:42:27.667Z,10.44
2019-05-26T03:43:27.655Z,10.42
2019-05-26T03:44:27.653Z,10.44
2019-05-26T03:45:27.692Z,10.34
2019-05-26T03:46:27.619Z,10.39
2019-05-26T03:47:27.605Z,10.42
2019-05-26T03:48:27.604Z,10.38
2019-05-26T03:49:27.596Z,10.46
2019-05-26T03:50:27.624Z,10.51
2019-05-26T03:51:27.668Z,10.51
2019-05-26T03:52:27.556Z,10.47
2019-05-26T03:53:27.539Z,10.57
2019-05-26T03:54:27.531Z,10.47
2019-05-26T03:55:27.525Z,10.58
2019-05-26T03:56:27.518Z,10.60
2019-05-26T03:57:27.502Z,10.62
2019-05-26T03:58:27.491Z,10.58
2019-05-26T03:59:35.063Z,10.60
2019-05-26T04:00:27.504Z,10.60
2019-05-26T04:01:27.463Z,10.63
2019-05-26T04:02:27.448Z,10.72
2019-05-26T04:03:27.442Z,10.72
2019-05-26T04:04:27.446Z,10.68
2019-05-26T04:05:27.415Z,10.68
2019-05-26T04:06:27.404Z,10.60
2019-05-26T04:07:27.404Z,10.58
2019-05-26T04:08:27.379Z,10.51
2019-05-26T04:09:27.369Z,10.60
2019-05-26T04:10:27.358Z,10.52
2019-05-26T04:11:27.347Z,10.44
2019-05-26T04:12:27.365Z,10.62
2019-05-26T04:13:27.330Z,10.51
2019-05-26T04:14:27.315Z,10.57
2019-05-26T04:15:27.323Z,10.49
2019-05-26T04:16:27.297Z,10.55
2019-05-26T04:17:27.282Z,10.60
2019-05-26T04:18:27.287Z,10.63
2019-05-26T04:19:27.265Z,10.68
2019-05-26T04:20:27.250Z,10.70
2019-05-26T04:21:27.246Z,10.72
2019-05-26T04:22:27.233Z,10.65
2019-05-26T04:23:27.225Z,10.70
2019-05-26T04:24:27.239Z,10.75
2019-05-26T04:25:27.200Z,10.88
2019-05-26T04:26:27.194Z,10.91
2019-05-26T04:27:27.173Z,10.98
2019-05-26T04:28:27.204Z,10.94
2019-05-26T04:29:27.153Z,10.98
2019-05-26T04:30:27.157Z,10.94
2019-05-26T04:31:27.138Z,10.93
2019-05-26T04:32:27.127Z,10.94
2019-05-26T04:33:27.125Z,10.87
2019-05-26T04:34:27.112Z,10.98
2019-05-26T04:35:27.089Z,10.88
2019-05-26T04:36:27.085Z,10.95
2019-05-26T04:37:27.068Z,10.84
2019-05-26T04:38:27.062Z,10.91
2019-05-26T04:39:27.084Z,10.91
2019-05-26T04:40:28.165Z,11.05
2019-05-26T04:41:27.026Z,10.95
2019-05-26T04:42:27.026Z,10.83
2019-05-26T04:43:27.012Z,11.02
2019-05-26T04:44:27.008Z,10.98
2019-05-26T04:45:27.011Z,11.06
2019-05-26T04:46:26.989Z,11.03
2019-05-26T04:47:27.005Z,10.93
2019-05-26T04:48:26.960Z,10.95
2019-05-26T04:49:26.955Z,11.03
2019-05-26T04:50:26.935Z,11.05
2019-05-26T04:51:26.924Z,11.03
2019-05-26T04:52:26.928Z,11.11
2019-05-26T04:53:26.906Z,11.02
2019-05-26T04:54:26.901Z,10.91
2019-05-26T04:55:26.881Z,10.95
2019-05-26T04:56:26.880Z,10.93
2019-05-26T04:57:26.865Z,11.02
2019-05-26T04:58:26.857Z,10.94
2019-05-26T04:59:26.847Z,10.91
2019-05-26T05:00:26.826Z,10.94
2019-05-26T05:01:26.814Z,11.06
2019-05-26T05:02:26.808Z,11.05
2019-05-26T05:03:26.798Z,11.13
2019-05-26T05:04:26.788Z,11.23
2019-05-26T05:05:26.774Z,11.20
2019-05-26T05:06:26.765Z,11.28
2019-05-26T05:07:28.493Z,11.35
2019-05-26T05:08:26.746Z,11.39
2019-05-26T05:09:26.745Z,11.39
2019-05-26T05:10:41.413Z,11.26
2019-05-26T05:11:27.712Z,11.31
2019-05-26T05:12:26.704Z,11.41
2019-05-26T05:13:26.688Z,11.42
2019-05-26T05:14:26.673Z,11.39
2019-05-26T05:15:26.686Z,11.39
2019-05-26T05:16:26.651Z,11.53
2019-05-26T05:17:26.645Z,11.48
2019-05-26T05:18:26.631Z,11.60
2019-05-26T05:19:26.623Z,11.75
2019-05-26T05:20:26.609Z,11.64
2019-05-26T05:21:26.626Z,11.60
2019-05-26T05:22:26.591Z,11.66
2019-05-26T05:23:26.586Z,11.64
2019-05-26T05:24:26.565Z,11.72
2019-05-26T05:25:26.558Z,11.74
2019-05-26T05:26:26.542Z,11.84
2019-05-26T05:27:26.560Z,11.81
2019-05-26T05:28:26.527Z,12.01
2019-05-26T05:29:26.509Z,12.03
2019-05-26T05:30:26.505Z,12.18
2019-05-26T05:31:26.495Z,12.26
2019-05-26T05:32:26.490Z,12.38
2019-05-26T05:33:26.481Z,12.48
2019-05-26T05:34:26.465Z,12.56
2019-05-26T05:35:26.492Z,12.62
2019-05-26T05:36:26.439Z,12.70
2019-05-26T05:37:26.425Z,12.66
2019-05-26T05:38:26.414Z,12.77
2019-05-26T05:39:26.404Z,12.87
2019-05-26T05:40:26.392Z,12.85
2019-05-26T05:41:26.410Z,12.84
2019-05-26T05:42:26.375Z,12.84
2019-05-26T05:43:26.365Z,12.89
2019-05-26T05:44:26.365Z,12.91
2019-05-26T05:45:26.341Z,12.85
2019-05-26T05:46:26.367Z,12.81
2019-05-26T05:47:26.326Z,12.89
2019-05-26T05:48:26.306Z,13.01
2019-05-26T05:49:26.308Z,12.98
2019-05-26T05:50:26.299Z,13.12
2019-05-26T05:51:26.289Z,13.27
2019-05-26T05:52:26.272Z,13.24
2019-05-26T05:53:26.291Z,13.36
2019-05-26T05:54:26.247Z,13.51
2019-05-26T05:55:26.232Z,13.47
2019-05-26T05:56:26.228Z,13.63
2019-05-26T05:57:26.209Z,13.72
2019-05-26T05:58:26.212Z,13.79
2019-05-26T05:59:26.201Z,13.80
2019-05-26T06:00:26.178Z,13.81
2019-05-26T06:01:26.168Z,13.83
2019-05-26T06:02:26.163Z,13.84
2019-05-26T06:03:26.179Z,13.86
2019-05-26T06:04:26.146Z,14.02
2019-05-26T06:05:26.128Z,13.99
2019-05-26T06:06:26.112Z,14.01
2019-05-26T06:07:26.107Z,13.99
2019-05-26T06:08:26.102Z,13.94
2019-05-26T06:09:26.094Z,14.08
2019-05-26T06:10:26.069Z,14.09
2019-05-26T06:11:26.062Z,14.11
2019-05-26T06:12:26.055Z,14.23
2019-05-26T06:13:26.037Z,14.30
2019-05-26T06:14:26.103Z,14.34
2019-05-26T06:15:26.016Z,14.46
2019-05-26T06:16:26.008Z,14.54
2019-05-26T06:17:25.993Z,14.49
2019-05-26T06:18:25.982Z,14.53
2019-05-26T06:19:25.979Z,14.60
2019-05-26T06:20:25.960Z,14.74
2019-05-26T06:21:25.965Z,14.64
2019-05-26T06:22:25.938Z,14.60
2019-05-26T06:23:25.931Z,14.72
2019-05-26T06:24:25.927Z,14.72
2019-05-26T06:25:25.920Z,14.91
2019-05-26T06:26:25.902Z,14.97
2019-05-26T06:27:25.884Z,14.94
2019-05-26T06:28:25.884Z,14.97
2019-05-26T06:29:25.864Z,15.12
2019-05-26T06:30:25.860Z,15.12
2019-05-26T06:31:25.841Z,15.20
2019-05-26T06:32:25.836Z,15.25
2019-05-26T06:33:25.820Z,15.25
2019-05-26T06:34:25.810Z,15.19
2019-05-26T06:35:25.813Z,15.15
2019-05-26T06:36:25.788Z,15.07
2019-05-26T06:37:25.782Z,14.95
2019-05-26T06:38:25.770Z,14.94
2019-05-26T06:39:25.760Z,15.04
2019-05-26T06:40:25.761Z,15.11
2019-05-26T06:41:33.307Z,15.12
2019-05-26T06:42:26.727Z,15.13
2019-05-26T06:43:25.712Z,15.20
2019-05-26T06:44:25.707Z,15.31
2019-05-26T06:45:25.697Z,15.37
2019-05-26T06:46:25.681Z,15.44
2019-05-26T06:47:25.669Z,15.43
2019-05-26T06:48:26.975Z,15.53
2019-05-26T06:49:25.649Z,15.58
2019-05-26T06:50:25.642Z,15.59
2019-05-26T06:51:25.628Z,15.52
2019-05-26T06:52:25.617Z,15.59
2019-05-26T06:53:25.609Z,15.56
2019-05-26T06:54:25.609Z,15.53
2019-05-26T06:55:25.587Z,15.62
2019-05-26T06:56:25.578Z,15.70
2019-05-26T06:57:25.561Z,15.68
2019-05-26T06:58:25.555Z,15.76
2019-05-26T06:59:25.552Z,15.81
2019-05-26T07:00:25.534Z,15.86
2019-05-26T07:01:25.525Z,15.88
2019-05-26T07:02:25.508Z,16.04
2019-05-26T07:03:25.502Z,15.95
2019-05-26T07:04:25.493Z,16.06
2019-05-26T07:05:25.514Z,16.03
2019-05-26T07:06:25.469Z,15.88
2019-05-26T07:07:25.458Z,15.89
2019-05-26T07:08:25.442Z,15.92
2019-05-26T07:09:25.447Z,16.03
2019-05-26T07:10:25.422Z,15.93
2019-05-26T07:11:25.433Z,16.03
2019-05-26T07:12:25.405Z,16.14
2019-05-26T07:13:25.393Z,16.33
2019-05-26T07:14:25.383Z,16.40
2019-05-26T07:15:25.374Z,16.50
2019-05-26T07:16:37.432Z,16.72
2019-05-26T07:17:26.367Z,16.81
2019-05-26T07:18:25.340Z,16.88
2019-05-26T07:19:25.328Z,16.90
2019-05-26T07:20:25.315Z,16.91
2019-05-26T07:21:25.327Z,16.95
2019-05-26T07:22:25.296Z,16.82
2019-05-26T07:23:25.290Z,16.67
2019-05-26T07:24:29.220Z,16.88
2019-05-26T07:25:25.265Z,17.00
2019-05-26T07:26:25.250Z,17.20
2019-05-26T07:27:25.253Z,17.22
2019-05-26T07:28:25.236Z,17.28
2019-05-26T07:29:25.219Z,17.24
2019-05-26T07:30:25.212Z,17.39
2019-05-26T07:31:25.206Z,17.46
2019-05-26T07:32:25.189Z,17.62
2019-05-26T07:33:25.190Z,17.80
2019-05-26T07:34:25.175Z,17.91
2019-05-26T07:35:25.158Z,18.10
2019-05-26T07:36:25.145Z,18.10
2019-05-26T07:37:25.148Z,18.25
2019-05-26T07:38:25.122Z,18.36
2019-05-26T07:39:25.110Z,18.39
2019-05-26T07:40:25.111Z,18.44
2019-05-26T07:41:25.090Z,18.38
2019-05-26T07:42:25.077Z,18.41
2019-05-26T07:43:28.051Z,18.25
2019-05-26T07:44:25.063Z,18.35
2019-05-26T07:45:25.069Z,18.26
2019-05-26T07:46:25.043Z,18.21
2019-05-26T07:47:25.032Z,18.26
2019-05-26T07:48:25.026Z,18.36
2019-05-26T07:49:25.002Z,18.46
2019-05-26T07:50:24.997Z,18.54
2019-05-26T07:51:24.989Z,18.50
2019-05-26T07:52:24.977Z,18.53
2019-05-26T07:53:24.976Z,18.54
2019-05-26T07:54:26.049Z,18.50
2019-05-26T07:55:24.954Z,18.59
2019-05-26T07:56:24.937Z,18.54
2019-05-26T07:57:24.922Z,18.53
2019-05-26T07:58:24.928Z,18.60
2019-05-26T07:59:24.901Z,18.47
2019-05-26T08:00:24.885Z,18.39
2019-05-26T08:01:24.898Z,18.38
2019-05-26T08:02:24.874Z,18.28
2019-05-26T08:03:24.853Z,18.23
2019-05-26T08:04:24.843Z,18.29
2019-05-26T08:05:24.832Z,18.42
2019-05-26T08:06:24.852Z,18.42
2019-05-26T08:07:24.815Z,18.47
2019-05-26T08:08:24.807Z,18.51
2019-05-26T08:09:24.789Z,18.49
2019-05-26T08:10:24.782Z,18.57
2019-05-26T08:11:24.766Z,18.53
2019-05-26T08:12:28.174Z,18.69
2019-05-26T08:13:25.748Z,18.76
2019-05-26T08:14:24.738Z,18.76
2019-05-26T08:15:24.733Z,18.89
2019-05-26T08:16:24.726Z,18.86
2019-05-26T08:17:24.717Z,18.87
2019-05-26T08:18:24.691Z,18.84
2019-05-26T08:19:24.686Z,18.93
2019-05-26T08:20:24.673Z,18.96
2019-05-26T08:21:24.666Z,18.93
2019-05-26T08:22:24.653Z,18.99
2019-05-26T08:23:24.640Z,18.79
2019-05-26T08:24:24.626Z,18.78
2019-05-26T08:25:24.621Z,18.86
2019-05-26T08:26:24.610Z,18.86
2019-05-26T08:27:24.617Z,18.78
2019-05-26T08:28:24.588Z,18.89
2019-05-26T08:29:24.578Z,19.12
2019-05-26T08:30:24.563Z,19.27
2019-05-26T08:31:24.580Z,19.38
2019-05-26T08:32:24.558Z,19.35
2019-05-26T08:33:24.539Z,19.40
2019-05-26T08:34:24.523Z,19.50
2019-05-26T08:35:24.514Z,19.57
2019-05-26T08:36:24.498Z,19.75
2019-05-26T08:37:24.494Z,19.87
2019-05-26T08:38:24.479Z,20.01
2019-05-26T08:39:24.487Z,20.16
2019-05-26T08:40:24.458Z,20.31
2019-05-26T08:41:24.447Z,20.40
2019-05-26T08:42:27.272Z,20.56
2019-05-26T08:43:25.419Z,20.56
2019-05-26T08:44:24.414Z,20.56
2019-05-26T08:45:24.415Z,20.50
2019-05-26T08:46:24.395Z,20.53
2019-05-26T08:47:24.394Z,20.27
2019-05-26T08:48:24.377Z,20.27
2019-05-26T08:49:24.360Z,19.95
2019-05-26T08:50:24.355Z,20.16
2019-05-26T08:51:24.337Z,20.38
2019-05-26T08:52:24.332Z,20.60
2019-05-26T08:53:24.325Z,20.93
2019-05-26T08:54:24.308Z,21.11
2019-05-26T08:55:24.293Z,21.05
2019-05-26T08:56:24.282Z,21.30
2019-05-26T08:57:24.280Z,21.48
2019-05-26T08:58:24.282Z,21.73
2019-05-26T08:59:24.262Z,21.81
2019-05-26T09:00:24.245Z,21.79
2019-05-26T09:01:24.259Z,21.68
2019-05-26T09:02:24.223Z,21.49
2019-05-26T09:03:24.208Z,21.58
2019-05-26T09:04:24.207Z,21.66
2019-05-26T09:05:24.203Z,21.68
2019-05-26T09:06:24.182Z,21.61
2019-05-26T09:07:24.203Z,21.75
2019-05-26T09:08:24.181Z,21.75
2019-05-26T09:09:24.159Z,21.86
2019-05-26T09:10:24.137Z,21.98
2019-05-26T09:11:24.142Z,21.52
2019-05-26T09:12:24.117Z,21.83
2019-05-26T09:13:24.101Z,22.09
2019-05-26T09:14:25.560Z,22.17
2019-05-26T09:15:24.178Z,22.36
2019-05-26T09:16:24.123Z,22.45
2019-05-26T09:17:24.065Z,22.45
2019-05-26T09:18:24.046Z,22.57
2019-05-26T09:19:24.036Z,22.70
2019-05-26T09:20:24.028Z,22.78
2019-05-26T09:21:24.033Z,22.41
2019-05-26T09:22:24.003Z,22.01
2019-05-26T09:23:24.013Z,22.09
2019-05-26T09:24:23.982Z,21.90
2019-05-26T09:25:23.977Z,21.71
2019-05-26T09:26:23.966Z,21.82
2019-05-26T09:27:23.972Z,21.81
2019-05-26T09:28:23.955Z,22.05
2019-05-26T09:29:23.928Z,22.04
2019-05-26T09:30:23.918Z,21.77
2019-05-26T09:31:23.910Z,22.01
2019-05-26T09:32:23.903Z,22.12
2019-05-26T09:33:23.887Z,22.27
2019-05-26T09:34:23.885Z,22.09
2019-05-26T09:35:23.865Z,21.73
2019-05-26T09:36:23.862Z,21.40
2019-05-26T09:37:23.850Z,21.48
2019-05-26T09:38:23.839Z,21.63
2019-05-26T09:39:23.831Z,21.90
2019-05-26T09:40:23.823Z,22.08
2019-05-26T09:41:23.803Z,22.02
2019-05-26T09:42:23.799Z,21.99
2019-05-26T09:43:23.787Z,22.21
2019-05-26T09:44:23.805Z,22.33
2019-05-26T09:45:23.759Z,22.04
2019-05-26T09:46:23.753Z,21.58
2019-05-26T09:47:23.737Z,21.46
2019-05-26T09:48:23.727Z,21.83
2019-05-26T09:49:23.723Z,21.64
2019-05-26T09:50:23.740Z,21.93
2019-05-26T09:51:23.705Z,21.77
2019-05-26T09:52:23.689Z,21.73
2019-05-26T09:53:23.679Z,22.23
2019-05-26T09:54:23.669Z,22.19
2019-05-26T09:55:23.656Z,22.39
2019-05-26T09:56:23.671Z,22.49
2019-05-26T09:57:23.636Z,22.35
2019-05-26T09:58:23.624Z,22.23
2019-05-26T09:59:23.616Z,22.26
2019-05-26T10:00:30.655Z,22.36
2019-05-26T10:01:23.588Z,22.24
2019-05-26T10:02:23.587Z,22.44
2019-05-26T10:03:23.566Z,22.75
2019-05-26T10:04:23.557Z,22.79
2019-05-26T10:05:23.545Z,22.99
2019-05-26T10:06:23.540Z,23.16
2019-05-26T10:07:23.552Z,23.22
2019-05-26T10:08:23.513Z,22.97
2019-05-26T10:09:23.502Z,22.79
2019-05-26T10:10:23.492Z,22.72
2019-05-26T10:11:23.486Z,22.99
2019-05-26T10:12:23.476Z,23.35
2019-05-26T10:13:31.620Z,23.32
2019-05-26T10:14:24.448Z,23.42
2019-05-26T10:15:23.445Z,23.11
2019-05-26T10:16:23.489Z,22.78
2019-05-26T10:17:23.514Z,22.86
2019-05-26T10:18:23.414Z,22.72
2019-05-26T10:19:23.412Z,22.49
2019-05-26T10:20:23.389Z,22.48
2019-05-26T10:21:23.390Z,22.14
2019-05-26T10:22:23.368Z,22.05
2019-05-26T10:23:23.369Z,22.20
2019-05-26T10:24:23.350Z,22.30
2019-05-26T10:25:23.339Z,22.27
2019-05-26T10:26:23.328Z,22.21
2019-05-26T10:27:23.312Z,22.20
2019-05-26T10:28:23.332Z,22.27
2019-05-26T10:29:23.291Z,22.64
2019-05-26T10:30:23.289Z,22.44
2019-05-26T10:31:23.272Z,22.39
2019-05-26T10:32:23.264Z,22.42
2019-05-26T10:33:23.255Z,22.17
2019-05-26T10:34:23.255Z,22.19
2019-05-26T10:35:23.226Z,22.14
2019-05-26T10:36:23.221Z,22.61
2019-05-26T10:37:23.214Z,22.36
2019-05-26T10:38:23.197Z,22.51
2019-05-26T10:39:23.186Z,22.81
2019-05-26T10:40:23.183Z,22.67
2019-05-26T10:41:23.171Z,22.81
2019-05-26T10:42:23.157Z,22.49
2019-05-26T10:43:23.148Z,22.41
2019-05-26T10:44:23.141Z,22.52
2019-05-26T10:45:23.130Z,22.59
2019-05-26T10:46:23.111Z,22.39
2019-05-26T10:47:23.102Z,22.64
2019-05-26T10:48:23.096Z,22.36
2019-05-26T10:49:23.081Z,22.64
2019-05-26T10:50:23.083Z,22.84
2019-05-26T10:51:23.063Z,23.15
2019-05-26T10:52:23.064Z,23.29
2019-05-26T10:53:23.042Z,23.12
2019-05-26T10:54:23.037Z,23.03
2019-05-26T10:55:23.031Z,22.84
2019-05-26T10:56:23.011Z,23.31
2019-05-26T10:57:22.996Z,23.23
2019-05-26T10:58:22.992Z,23.26
2019-05-26T10:59:22.976Z,23.41
2019-05-26T11:00:22.963Z,24.02
2019-05-26T11:01:22.980Z,24.16
2019-05-26T11:02:22.947Z,24.61
2019-05-26T11:03:22.932Z,24.99
2019-05-26T11:04:22.921Z,25.53
2019-05-26T11:05:22.920Z,25.97
2019-05-26T11:06:22.899Z,26.11
2019-05-26T11:07:22.903Z,26.21
2019-05-26T11:08:22.878Z,25.69
2019-05-26T11:09:22.869Z,25.86
2019-05-26T11:10:22.866Z,25.97
2019-05-26T11:11:22.862Z,25.57
2019-05-26T11:12:22.846Z,25.63
2019-05-26T11:13:22.832Z,25.14
2019-05-26T11:14:22.821Z,25.01
2019-05-26T11:15:22.807Z,24.49
2019-05-26T11:16:22.797Z,24.31
2019-05-26T11:17:22.798Z,23.78
2019-05-26T11:18:22.781Z,23.71
2019-05-26T11:19:22.769Z,24.30
2019-05-26T11:20:22.763Z,24.33
2019-05-26T11:21:22.749Z,24.09
2019-05-26T11:22:22.749Z,23.92
2019-05-26T11:23:22.730Z,23.87
2019-05-26T11:24:22.711Z,23.68
2019-05-26T11:25:22.702Z,23.63
2019-05-26T11:26:22.692Z,23.60
2019-05-26T11:27:22.697Z,23.62
2019-05-26T11:28:22.674Z,23.45
2019-05-26T11:29:22.659Z,23.60
2019-05-26T11:30:22.648Z,23.52
2019-05-26T11:31:22.641Z,23.44
2019-05-26T11:32:22.670Z,23.39
2019-05-26T11:33:22.623Z,23.60
2019-05-26T11:34:22.612Z,23.82
2019-05-26T11:35:22.606Z,23.64
2019-05-26T11:36:22.590Z,23.68
2019-05-26T11:37:22.580Z,23.62
2019-05-26T11:38:22.575Z,23.44
2019-05-26T11:39:22.554Z,23.23
2019-05-26T11:40:22.549Z,23.12
2019-05-26T11:41:22.534Z,22.91
2019-05-26T11:42:22.531Z,22.82
2019-05-26T11:43:22.545Z,22.89
2019-05-26T11:44:22.507Z,22.93
2019-05-26T11:45:22.491Z,22.69
2019-05-26T11:46:22.481Z,22.69
2019-05-26T11:47:22.470Z,22.78
2019-05-26T11:48:22.465Z,22.70
2019-05-26T11:49:22.479Z,22.78
2019-05-26T11:50:22.444Z,23.06
2019-05-26T11:51:22.436Z,23.60
2019-05-26T11:52:22.416Z,24.11
2019-05-26T11:53:22.412Z,24.21
2019-05-26T11:54:22.456Z,24.39
2019-05-26T11:55:22.398Z,24.80
2019-05-26T11:56:22.389Z,24.80
2019-05-26T11:57:22.370Z,24.68
2019-05-26T11:58:22.363Z,24.46
2019-05-26T11:59:22.349Z,24.27
2019-05-26T12:00:22.333Z,23.93
2019-05-26T12:01:23.226Z,23.90
2019-05-26T12:02:22.319Z,23.78
2019-05-26T12:03:22.332Z,23.77
2019-05-26T12:04:22.291Z,23.75
2019-05-26T12:05:22.282Z,23.67
2019-05-26T12:06:22.280Z,23.44
2019-05-26T12:07:22.262Z,23.39
2019-05-26T12:08:22.261Z,23.42
2019-05-26T12:09:22.275Z,23.56
2019-05-26T12:10:22.227Z,23.67
2019-05-26T12:11:22.216Z,23.56
2019-05-26T12:12:22.213Z,23.59
2019-05-26T12:13:22.201Z,23.45
2019-05-26T12:14:34.345Z,23.38
2019-05-26T12:15:23.185Z,23.26
2019-05-26T12:16:22.208Z,23.31
2019-05-26T12:17:22.169Z,23.41
2019-05-26T12:18:22.151Z,23.59
2019-05-26T12:19:22.139Z,23.69
2019-05-26T12:20:22.121Z,23.63
2019-05-26T12:21:22.128Z,23.68
2019-05-26T12:22:22.140Z,23.86
2019-05-26T12:23:22.097Z,24.52
2019-05-26T12:24:22.088Z,24.36
2019-05-26T12:25:22.072Z,24.41
2019-05-26T12:26:22.058Z,24.56
2019-05-26T12:27:22.051Z,24.84
2019-05-26T12:28:22.051Z,24.83
2019-05-26T12:29:22.025Z,24.67
2019-05-26T12:30:22.029Z,24.67
2019-05-26T12:31:22.018Z,24.70
2019-05-26T12:32:21.995Z,24.90
2019-05-26T12:33:21.985Z,25.07
2019-05-26T12:34:21.979Z,24.97
2019-05-26T12:35:21.969Z,24.66
2019-05-26T12:36:21.960Z,24.29
2019-05-26T12:37:21.959Z,24.08
2019-05-26T12:38:21.966Z,24.09
2019-05-26T12:39:21.922Z,24.09
2019-05-26T12:40:21.913Z,24.02
2019-05-26T12:41:21.909Z,23.93
2019-05-26T12:42:21.931Z,23.99
2019-05-26T12:43:21.885Z,23.92
2019-05-26T12:44:21.874Z,23.84
2019-05-26T12:45:21.857Z,23.89
2019-05-26T12:46:21.851Z,23.74
2019-05-26T12:47:21.841Z,23.59
2019-05-26T12:48:21.838Z,23.63
2019-05-26T12:49:21.817Z,23.59
2019-05-26T12:50:21.809Z,23.42
2019-05-26T12:51:21.798Z,23.50
2019-05-26T12:52:21.824Z,23.38